createdAt,value
2019-01-04T00:00:05.400Z,0.30
2019-01-04T00:01:05.529Z,0.30
2019-01-04T00:02:05.696Z,0.30
2019-01-04T00:03:04.753Z,0.30
2019-01-04T00:04:04.966Z,0.20
2019-01-04T00:05:05.067Z,0.30
2019-01-04T00:06:05.308Z,0.30
2019-01-04T00:07:05.446Z,0.30
2019-01-04T00:08:05.614Z,0.30
2019-01-04T00:09:09.756Z,0.30
2019-01-04T00:10:04.774Z,0.30
2019-01-04T00:11:07.389Z,0.30
2019-01-04T00:12:05.339Z,0.30
2019-01-04T00:13:05.534Z,0.30
2019-01-04T00:14:04.723Z,0.30
2019-01-04T00:15:04.803Z,0.30
2019-01-04T00:16:04.894Z,0.30
2019-01-04T00:17:04.984Z,0.30
2019-01-04T00:18:05.032Z,0.30
2019-01-04T00:19:05.171Z,0.30
2019-01-04T00:20:05.305Z,0.30
2019-01-04T00:21:05.720Z,0.30
2019-01-04T00:22:04.837Z,0.30
2019-01-04T00:23:04.929Z,0.30
2019-01-04T00:24:05.030Z,0.30
2019-01-04T00:25:05.143Z,0.40
2019-01-04T00:26:05.263Z,0.30
2019-01-04T00:27:05.394Z,0.30
2019-01-04T00:28:05.456Z,0.30
2019-01-04T00:29:05.657Z,0.30
2019-01-04T00:30:07.437Z,0.30
2019-01-04T00:31:05.334Z,0.30
2019-01-04T00:32:08.012Z,0.30
2019-01-04T00:33:05.067Z,0.30
2019-01-04T00:34:05.230Z,0.30
2019-01-04T00:35:07.896Z,0.30
2019-01-04T00:36:07.517Z,0.30
2019-01-04T00:37:08.130Z,0.30
2019-01-04T00:38:05.170Z,0.30
2019-01-04T00:39:07.835Z,0.30
2019-01-04T00:40:04.844Z,0.40
2019-01-04T00:41:04.899Z,0.40
2019-01-04T00:42:05.041Z,0.30
2019-01-04T00:43:07.696Z,0.30
2019-01-04T00:44:08.199Z,0.40
2019-01-04T00:45:05.111Z,0.30
2019-01-04T00:46:05.324Z,0.40
2019-01-04T00:47:05.507Z,0.40
2019-01-04T00:48:05.597Z,0.40
2019-01-04T00:49:04.762Z,0.40
2019-01-04T00:50:05.083Z,0.40
2019-01-04T00:51:05.205Z,0.30
2019-01-04T00:52:07.807Z,0.40
2019-01-04T00:53:04.773Z,0.40
2019-01-04T00:54:05.350Z,0.40
2019-01-04T00:55:07.997Z,0.40
2019-01-04T00:56:05.025Z,0.40
2019-01-04T00:57:05.100Z,0.40
2019-01-04T00:58:07.778Z,0.40
2019-01-04T00:59:04.745Z,0.30
2019-01-04T01:00:07.518Z,0.40
2019-01-04T01:01:05.485Z,0.40
2019-01-04T01:02:05.586Z,0.40
2019-01-04T01:03:04.768Z,0.40
2019-01-04T01:04:07.437Z,0.40
2019-01-04T01:05:05.520Z,0.30
2019-01-04T01:06:04.719Z,0.40
2019-01-04T01:07:07.389Z,0.40
2019-01-04T01:08:05.361Z,0.40
2019-01-04T01:09:05.496Z,0.40
2019-01-04T01:10:05.680Z,0.40
2019-01-04T01:11:07.383Z,0.40
2019-01-04T01:12:05.399Z,0.40
2019-01-04T01:13:08.114Z,0.40
2019-01-04T01:14:05.113Z,0.30
2019-01-04T01:15:05.234Z,0.40
2019-01-04T01:16:05.514Z,0.40
2019-01-04T01:17:05.729Z,0.40
2019-01-04T01:18:04.911Z,0.40
2019-01-04T01:19:05.056Z,0.40
2019-01-04T01:20:05.322Z,0.40
2019-01-04T01:21:08.044Z,0.40
2019-01-04T01:22:05.077Z,0.40
2019-01-04T01:23:05.232Z,0.40
2019-01-04T01:24:05.324Z,0.40
2019-01-04T01:25:05.378Z,0.40
2019-01-04T01:26:05.505Z,0.40
2019-01-04T01:27:08.141Z,0.40
2019-01-04T01:28:07.624Z,0.40
2019-01-04T01:29:05.742Z,0.40
2019-01-04T01:30:05.004Z,0.40
2019-01-04T01:31:05.046Z,0.40
2019-01-04T01:32:05.106Z,0.40
2019-01-04T01:33:05.170Z,0.40
2019-01-04T01:34:05.275Z,0.40
2019-01-04T01:35:05.444Z,0.40
2019-01-04T01:36:04.753Z,0.40
2019-01-04T01:37:04.796Z,0.40
2019-01-04T01:38:10.385Z,0.40
2019-01-04T01:39:05.675Z,0.40
2019-01-04T01:40:04.874Z,0.30
2019-01-04T01:41:07.704Z,0.40
2019-01-04T01:42:04.773Z,0.40
2019-01-04T01:43:07.413Z,0.40
2019-01-04T01:44:05.488Z,0.40
2019-01-04T01:45:05.633Z,0.40
2019-01-04T01:46:04.709Z,0.40
2019-01-04T01:47:07.366Z,0.40
2019-01-04T01:48:05.278Z,0.40
2019-01-04T01:49:05.390Z,0.40
2019-01-04T01:50:08.044Z,0.40
2019-01-04T01:51:05.020Z,0.30
2019-01-04T01:52:05.045Z,0.40
2019-01-04T01:53:05.129Z,0.40
2019-01-04T01:54:10.414Z,0.40
2019-01-04T01:55:07.928Z,0.40
2019-01-04T01:56:07.493Z,0.40
2019-01-04T01:57:05.445Z,0.40
2019-01-04T01:58:05.528Z,0.40
2019-01-04T01:59:10.702Z,0.40
2019-01-04T02:00:05.797Z,0.40
2019-01-04T02:01:07.480Z,0.40
2019-01-04T02:02:05.470Z,0.40
2019-01-04T02:03:05.663Z,0.40
2019-01-04T02:04:07.269Z,0.40
2019-01-04T02:05:05.166Z,0.40
2019-01-04T02:06:05.256Z,0.40
2019-01-04T02:07:05.316Z,0.40
2019-01-04T02:08:05.513Z,0.40
2019-01-04T02:09:07.364Z,0.40
2019-01-04T02:10:07.827Z,0.40
2019-01-04T02:11:04.728Z,0.40
2019-01-04T02:12:04.782Z,0.40
2019-01-04T02:13:05.297Z,0.40
2019-01-04T02:14:05.474Z,0.40
2019-01-04T02:15:05.625Z,0.40
2019-01-04T02:16:04.738Z,0.40
2019-01-04T02:17:05.014Z,0.40
2019-01-04T02:18:05.527Z,0.40
2019-01-04T02:19:05.743Z,0.40
2019-01-04T02:20:04.920Z,0.40
2019-01-04T02:21:05.072Z,0.40
2019-01-04T02:22:05.200Z,0.40
2019-01-04T02:23:05.351Z,0.40
2019-01-04T02:24:05.407Z,0.50
2019-01-04T02:25:05.612Z,0.40
2019-01-04T02:26:07.727Z,0.40
2019-01-04T02:27:05.673Z,0.40
2019-01-04T02:28:04.789Z,0.40
2019-01-04T02:29:04.815Z,0.40
2019-01-04T02:30:08.064Z,0.40
2019-01-04T02:31:05.038Z,0.40
2019-01-04T02:32:05.234Z,0.40
2019-01-04T02:33:08.030Z,0.50
2019-01-04T02:34:05.116Z,0.40
2019-01-04T02:35:05.295Z,0.40
2019-01-04T02:36:05.397Z,0.50
2019-01-04T02:37:10.614Z,0.40
2019-01-04T02:38:05.687Z,0.50
2019-01-04T02:39:04.755Z,0.40
2019-01-04T02:40:04.879Z,0.50
2019-01-04T02:41:07.474Z,0.50
2019-01-04T02:42:05.594Z,0.40
2019-01-04T02:43:05.698Z,0.40
2019-01-04T02:44:04.993Z,0.40
2019-01-04T02:45:07.652Z,0.40
2019-01-04T02:46:05.665Z,0.50
2019-01-04T02:47:04.790Z,0.40
2019-01-04T02:48:04.926Z,0.50
2019-01-04T02:49:05.349Z,0.40
2019-01-04T02:50:05.744Z,0.50
2019-01-04T02:51:07.499Z,0.50
2019-01-04T02:52:10.594Z,0.40
2019-01-04T02:53:05.614Z,0.40
2019-01-04T02:54:07.391Z,0.50
2019-01-04T02:55:05.466Z,0.40
2019-01-04T02:56:08.120Z,0.40
2019-01-04T02:57:10.139Z,0.40
2019-01-04T02:58:05.041Z,0.40
2019-01-04T02:59:05.144Z,0.50
2019-01-04T03:00:05.213Z,0.40
2019-01-04T03:01:05.357Z,0.50
2019-01-04T03:02:08.117Z,0.40
2019-01-04T03:03:05.048Z,0.40
2019-01-04T03:04:05.092Z,0.50
2019-01-04T03:05:07.658Z,0.40
2019-01-04T03:06:05.618Z,0.50
2019-01-04T03:07:04.680Z,0.40
2019-01-04T03:08:07.370Z,0.50
2019-01-04T03:09:05.263Z,0.40
2019-01-04T03:10:05.398Z,0.40
2019-01-04T03:11:08.259Z,0.40
2019-01-04T03:12:05.168Z,0.40
2019-01-04T03:13:07.436Z,0.40
2019-01-04T03:14:05.423Z,0.40
2019-01-04T03:15:05.146Z,0.40
2019-01-04T03:16:05.427Z,0.40
2019-01-04T03:17:05.619Z,0.40
2019-01-04T03:18:04.650Z,0.40
2019-01-04T03:19:04.876Z,0.40
2019-01-04T03:20:04.949Z,0.40
2019-01-04T03:21:05.167Z,0.40
2019-01-04T03:22:05.194Z,0.40
2019-01-04T03:23:05.236Z,0.40
2019-01-04T03:24:05.329Z,0.40
2019-01-04T03:25:05.466Z,0.40
2019-01-04T03:26:05.610Z,0.40
2019-01-04T03:27:04.712Z,0.40
2019-01-04T03:28:04.810Z,0.40
2019-01-04T03:29:04.914Z,0.40
2019-01-04T03:30:05.067Z,0.40
2019-01-04T03:31:07.745Z,0.40
2019-01-04T03:32:04.741Z,0.40
2019-01-04T03:33:04.917Z,0.40
2019-01-04T03:34:05.021Z,0.40
2019-01-04T03:35:05.139Z,0.30
2019-01-04T03:36:10.407Z,0.40
2019-01-04T03:37:07.968Z,0.40
2019-01-04T03:38:05.014Z,0.30
2019-01-04T03:39:05.255Z,0.30
2019-01-04T03:40:05.343Z,0.30
2019-01-04T03:41:07.949Z,0.30
2019-01-04T03:42:07.403Z,0.30
2019-01-04T03:43:07.932Z,0.30
2019-01-04T03:44:04.874Z,0.30
2019-01-04T03:45:07.824Z,0.30
2019-01-04T03:46:04.856Z,0.30
2019-01-04T03:47:07.457Z,0.30
2019-01-04T03:48:10.459Z,0.30
2019-01-04T03:49:05.422Z,0.30
2019-01-04T03:50:08.005Z,0.30
2019-01-04T03:51:05.015Z,0.30
2019-01-04T03:52:07.690Z,0.30
2019-01-04T03:53:07.346Z,0.30
2019-01-04T03:54:05.406Z,0.30
2019-01-04T03:55:08.074Z,0.30
2019-01-04T03:56:05.002Z,0.30
2019-01-04T03:57:05.202Z,0.30
2019-01-04T03:58:05.502Z,0.30
2019-01-04T03:59:05.665Z,0.30
2019-01-04T04:00:07.298Z,0.20
2019-01-04T04:01:05.293Z,0.20
2019-01-04T04:02:07.948Z,0.30
2019-01-04T04:03:07.555Z,0.30
2019-01-04T04:04:05.782Z,0.30
2019-01-04T04:05:05.005Z,0.20
2019-01-04T04:06:05.123Z,0.30
2019-01-04T04:07:05.188Z,0.30
2019-01-04T04:08:07.834Z,0.20
2019-01-04T04:09:04.775Z,0.20
2019-01-04T04:10:04.898Z,0.20
2019-01-04T04:11:07.473Z,0.20
2019-01-04T04:12:05.485Z,0.30
2019-01-04T04:13:05.626Z,0.20
2019-01-04T04:14:04.910Z,0.20
2019-01-04T04:15:04.973Z,0.20
2019-01-04T04:16:05.442Z,0.20
2019-01-04T04:17:10.677Z,0.20
2019-01-04T04:18:08.301Z,0.20
2019-01-04T04:19:05.284Z,0.20
2019-01-04T04:20:05.392Z,0.20
2019-01-04T04:21:05.469Z,0.20
2019-01-04T04:22:08.041Z,0.10
2019-01-04T04:23:05.018Z,0.20
2019-01-04T04:24:05.106Z,0.20
2019-01-04T04:25:05.180Z,0.20
2019-01-04T04:26:07.859Z,0.20
2019-01-04T04:27:04.928Z,0.20
2019-01-04T04:28:07.644Z,0.20
2019-01-04T04:29:05.772Z,0.10
2019-01-04T04:30:07.763Z,0.20
2019-01-04T04:31:07.247Z,0.20
2019-01-04T04:32:05.307Z,0.20
2019-01-04T04:33:05.425Z,0.20
2019-01-04T04:34:08.070Z,0.20
2019-01-04T04:35:05.040Z,0.20
2019-01-04T04:36:05.117Z,0.10
2019-01-04T04:37:07.688Z,0.20
2019-01-04T04:38:05.716Z,0.20
2019-01-04T04:39:04.892Z,0.10
2019-01-04T04:40:07.704Z,0.10
2019-01-04T04:41:07.323Z,0.10
2019-01-04T04:42:05.250Z,0.10
2019-01-04T04:43:05.385Z,0.10
2019-01-04T04:44:05.590Z,0.10
2019-01-04T04:45:05.631Z,0.10
2019-01-04T04:46:04.845Z,0.10
2019-01-04T04:47:05.012Z,0.10
2019-01-04T04:48:05.198Z,0.10
2019-01-04T04:49:05.355Z,0.10
2019-01-04T04:50:05.435Z,0.10
2019-01-04T04:51:05.520Z,0.10
2019-01-04T04:52:05.601Z,0.10
2019-01-04T04:53:05.138Z,0.10
2019-01-04T04:54:07.869Z,0.10
2019-01-04T04:55:04.770Z,0.10
2019-01-04T04:56:07.436Z,0.10
2019-01-04T04:57:07.943Z,0.10
2019-01-04T04:58:04.835Z,0.10
2019-01-04T04:59:07.470Z,0.10
2019-01-04T05:00:05.551Z,0.10
2019-01-04T05:01:08.306Z,0.10
2019-01-04T05:02:12.981Z,0.10
2019-01-04T05:03:04.899Z,0.10
2019-01-04T05:04:04.985Z,0.00
2019-01-04T05:05:05.068Z,0.10
2019-01-04T05:06:05.163Z,0.10
2019-01-04T05:07:05.418Z,0.10
2019-01-04T05:08:05.591Z,0.10
2019-01-04T05:09:04.840Z,0.10
2019-01-04T05:10:05.020Z,0.10
2019-01-04T05:11:05.191Z,0.10
2019-01-04T05:12:07.834Z,0.10
2019-01-04T05:13:04.856Z,0.00
2019-01-04T05:14:05.078Z,0.00
2019-01-04T05:15:05.356Z,0.10
2019-01-04T05:16:05.544Z,0.10
2019-01-04T05:17:04.729Z,0.00
2019-01-04T05:18:04.984Z,0.00
2019-01-04T05:19:05.164Z,0.00
2019-01-04T05:20:07.857Z,0.00
2019-01-04T05:21:05.078Z,0.00
2019-01-04T05:22:05.350Z,0.00
2019-01-04T05:23:05.666Z,0.00
2019-01-04T05:24:04.817Z,0.00
2019-01-04T05:25:05.475Z,0.00
2019-01-04T05:26:05.698Z,0.00
2019-01-04T05:27:04.814Z,0.00
2019-01-04T05:28:10.327Z,0.00
2019-01-04T05:29:05.348Z,0.00
2019-01-04T05:30:04.970Z,0.00
2019-01-04T05:31:05.321Z,0.00
2019-01-04T05:32:05.536Z,0.00
2019-01-04T05:33:07.424Z,0.00
2019-01-04T05:34:05.425Z,0.00
2019-01-04T05:35:05.556Z,0.00
2019-01-04T05:36:05.741Z,0.00
2019-01-04T05:37:07.284Z,0.00
2019-01-04T05:38:05.192Z,0.00
2019-01-04T05:39:05.249Z,0.00
2019-01-04T05:40:05.334Z,0.00
2019-01-04T05:41:05.446Z,0.00
2019-01-04T05:42:05.562Z,0.00
2019-01-04T05:43:05.626Z,0.00
2019-01-04T05:44:07.294Z,0.00
2019-01-04T05:45:08.005Z,0.00
2019-01-04T05:46:05.067Z,0.00
2019-01-04T05:47:05.270Z,0.00
2019-01-04T05:48:08.126Z,0.00
2019-01-04T05:49:07.715Z,0.00
2019-01-04T05:50:04.729Z,0.00
2019-01-04T05:51:04.837Z,0.00
2019-01-04T05:52:07.588Z,0.00
2019-01-04T05:53:05.766Z,0.00
2019-01-04T05:54:04.790Z,0.00
2019-01-04T05:55:04.962Z,0.00
2019-01-04T05:56:05.118Z,0.00
2019-01-04T05:57:05.187Z,0.00
2019-01-04T05:58:07.912Z,0.00
2019-01-04T05:59:09.913Z,0.00
2019-01-04T06:00:04.942Z,0.00
2019-01-04T06:01:05.038Z,0.00
2019-01-04T06:02:07.757Z,0.00
2019-01-04T06:03:07.283Z,0.00
2019-01-04T06:04:07.992Z,0.00
2019-01-04T06:05:07.619Z,0.00
2019-01-04T06:06:05.763Z,0.00
2019-01-04T06:07:07.351Z,0.00
2019-01-04T06:08:05.327Z,0.00
2019-01-04T06:09:05.428Z,0.00
2019-01-04T06:10:08.104Z,0.00
2019-01-04T06:11:10.306Z,0.00
2019-01-04T06:12:05.278Z,0.00
2019-01-04T06:13:05.366Z,0.00
2019-01-04T06:14:08.023Z,0.00
2019-01-04T06:15:07.507Z,0.00
2019-01-04T06:16:08.210Z,0.00
2019-01-04T06:17:05.280Z,0.00
2019-01-04T06:18:07.956Z,0.00
2019-01-04T06:19:04.953Z,0.00
2019-01-04T06:20:07.560Z,0.00
2019-01-04T06:21:05.595Z,0.00
2019-01-04T06:22:05.694Z,0.00
2019-01-04T06:23:07.295Z,0.00
2019-01-04T06:24:05.354Z,0.00
2019-01-04T06:25:08.034Z,0.00
2019-01-04T06:26:05.084Z,0.00
2019-01-04T06:27:05.287Z,0.00
2019-01-04T06:28:05.381Z,0.00
2019-01-04T06:29:05.521Z,0.00
2019-01-04T06:30:05.143Z,0.00
2019-01-04T06:31:05.379Z,0.00
2019-01-04T06:32:05.494Z,0.00
2019-01-04T06:33:08.252Z,0.00
2019-01-04T06:34:05.383Z,0.00
2019-01-04T06:35:05.543Z,0.00
2019-01-04T06:36:08.143Z,0.00
2019-01-04T06:37:05.197Z,0.00
2019-01-04T06:38:05.305Z,0.00
2019-01-04T06:39:08.045Z,0.00
2019-01-04T06:40:05.077Z,0.00
2019-01-04T06:41:07.849Z,0.00
2019-01-04T06:42:04.829Z,0.00
2019-01-04T06:43:04.952Z,0.00
2019-01-04T06:44:08.494Z,0.00
2019-01-04T06:45:08.224Z,0.00
2019-01-04T06:46:07.822Z,0.00
2019-01-04T06:47:04.854Z,0.00
2019-01-04T06:48:04.951Z,0.00
2019-01-04T06:49:05.056Z,0.00
2019-01-04T06:50:05.129Z,0.00
2019-01-04T06:51:05.250Z,0.00
2019-01-04T06:52:08.104Z,0.00
2019-01-04T06:53:07.556Z,0.00
2019-01-04T06:54:05.483Z,0.00
2019-01-04T06:55:08.223Z,0.00
2019-01-04T06:56:05.399Z,0.00
2019-01-04T06:57:05.618Z,0.00
2019-01-04T06:58:04.721Z,0.00
2019-01-04T06:59:07.309Z,0.00
2019-01-04T07:00:05.198Z,0.00
2019-01-04T07:01:05.308Z,0.00
2019-01-04T07:02:05.522Z,0.00
2019-01-04T07:03:05.678Z,0.00
2019-01-04T07:04:07.464Z,0.00
2019-01-04T07:05:05.412Z,0.00
2019-01-04T07:06:05.476Z,0.10
2019-01-04T07:07:05.550Z,0.10
2019-01-04T07:08:05.672Z,0.10
2019-01-04T07:09:04.850Z,0.00
2019-01-04T07:10:07.580Z,0.00
2019-01-04T07:11:10.690Z,0.10
2019-01-04T07:12:04.806Z,0.00
2019-01-04T07:13:04.911Z,0.00
2019-01-04T07:14:05.109Z,0.10
2019-01-04T07:15:05.314Z,0.10
2019-01-04T07:16:07.928Z,0.10
2019-01-04T07:17:12.474Z,0.00
2019-01-04T07:18:05.571Z,0.10
2019-01-04T07:19:04.826Z,0.10
2019-01-04T07:20:04.898Z,0.10
2019-01-04T07:21:04.958Z,0.10
2019-01-04T07:22:05.110Z,0.00
2019-01-04T07:23:05.267Z,0.10
2019-01-04T07:24:10.489Z,0.10
2019-01-04T07:25:07.927Z,0.10
2019-01-04T07:26:04.936Z,0.10
2019-01-04T07:27:07.621Z,0.10
2019-01-04T07:28:05.694Z,0.10
2019-01-04T07:29:04.858Z,0.10
2019-01-04T07:30:08.152Z,0.10
2019-01-04T07:31:05.217Z,0.10
2019-01-04T07:32:05.379Z,0.10
2019-01-04T07:33:05.426Z,0.10
2019-01-04T07:34:05.826Z,0.10
2019-01-04T07:35:07.415Z,0.10
2019-01-04T07:36:05.417Z,0.10
2019-01-04T07:37:08.090Z,0.10
2019-01-04T07:38:05.139Z,0.10
2019-01-04T07:39:05.227Z,0.10
2019-01-04T07:40:05.387Z,0.20
2019-01-04T07:41:08.158Z,0.20
2019-01-04T07:42:07.665Z,0.10
2019-01-04T07:43:05.544Z,0.20
2019-01-04T07:44:05.703Z,0.20
2019-01-04T07:45:05.056Z,0.10
2019-01-04T07:46:05.202Z,0.20
2019-01-04T07:47:07.963Z,0.20
2019-01-04T07:48:05.014Z,0.10
2019-01-04T07:49:05.296Z,0.20
2019-01-04T07:50:10.030Z,0.10
2019-01-04T07:51:07.635Z,0.20
2019-01-04T07:52:04.812Z,0.20
2019-01-04T07:53:05.037Z,0.20
2019-01-04T07:54:05.283Z,0.20
2019-01-04T07:55:05.427Z,0.20
2019-01-04T07:56:08.234Z,0.20
2019-01-04T07:57:05.256Z,0.20
2019-01-04T07:58:05.363Z,0.20
2019-01-04T07:59:05.612Z,0.20
2019-01-04T08:00:04.659Z,0.20
2019-01-04T08:01:07.356Z,0.20
2019-01-04T08:02:07.956Z,0.20
2019-01-04T08:03:05.235Z,0.20
2019-01-04T08:04:07.970Z,0.20
2019-01-04T08:05:05.037Z,0.20
2019-01-04T08:06:05.395Z,0.20
2019-01-04T08:07:05.737Z,0.30
2019-01-04T08:08:07.530Z,0.30
2019-01-04T08:09:05.654Z,0.20
2019-01-04T08:10:07.318Z,0.30
2019-01-04T08:11:05.367Z,0.20
2019-01-04T08:12:05.610Z,0.30
2019-01-04T08:13:07.385Z,0.30
2019-01-04T08:14:05.447Z,0.30
2019-01-04T08:15:05.110Z,0.30
2019-01-04T08:16:05.275Z,0.30
2019-01-04T08:17:07.914Z,0.30
2019-01-04T08:18:04.918Z,0.30
2019-01-04T08:19:05.202Z,0.30
2019-01-04T08:20:08.078Z,0.40
2019-01-04T08:21:07.611Z,0.40
2019-01-04T08:22:08.331Z,0.40
2019-01-04T08:23:05.646Z,0.30
2019-01-04T08:24:04.806Z,0.40
2019-01-04T08:25:04.952Z,0.40
2019-01-04T08:26:05.361Z,0.40
2019-01-04T08:27:05.646Z,0.40
2019-01-04T08:28:04.914Z,0.40
2019-01-04T08:29:10.803Z,0.50
2019-01-04T08:30:07.590Z,0.50
2019-01-04T08:31:08.286Z,0.50
2019-01-04T08:32:05.490Z,0.50
2019-01-04T08:33:05.635Z,0.50
2019-01-04T08:34:04.863Z,0.50
2019-01-04T08:35:05.371Z,0.50
2019-01-04T08:36:05.718Z,0.50
2019-01-04T08:37:05.137Z,0.50
2019-01-04T08:38:05.367Z,0.50
2019-01-04T08:39:05.521Z,0.50
2019-01-04T08:40:04.953Z,0.50
2019-01-04T08:41:05.262Z,0.50
2019-01-04T08:42:08.045Z,0.50
2019-01-04T08:43:05.102Z,0.60
2019-01-04T08:44:05.389Z,0.60
2019-01-04T08:45:05.611Z,0.60
2019-01-04T08:46:07.370Z,0.60
2019-01-04T08:47:10.504Z,0.60
2019-01-04T08:48:05.658Z,0.60
2019-01-04T08:49:04.789Z,0.60
2019-01-04T08:50:05.029Z,0.60
2019-01-04T08:51:05.240Z,0.60
2019-01-04T08:52:05.472Z,0.60
2019-01-04T08:53:05.735Z,0.60
2019-01-04T08:54:04.857Z,0.60
2019-01-04T08:55:05.172Z,0.60
2019-01-04T08:56:10.860Z,0.60
2019-01-04T08:57:07.492Z,0.60
2019-01-04T08:58:05.706Z,0.60
2019-01-04T08:59:07.555Z,0.70
2019-01-04T09:00:08.231Z,0.70
2019-01-04T09:01:05.366Z,0.70
2019-01-04T09:02:08.045Z,0.70
2019-01-04T09:03:07.715Z,0.70
2019-01-04T09:04:04.952Z,0.70
2019-01-04T09:05:07.802Z,0.70
2019-01-04T09:06:04.818Z,0.70
2019-01-04T09:07:05.183Z,0.70
2019-01-04T09:08:10.600Z,0.80
2019-01-04T09:09:10.751Z,0.70
2019-01-04T09:10:04.746Z,0.70
2019-01-04T09:11:04.871Z,0.80
2019-01-04T09:12:07.548Z,0.80
2019-01-04T09:13:04.757Z,0.80
2019-01-04T09:14:04.869Z,0.80
2019-01-04T09:15:05.074Z,0.80
2019-01-04T09:16:07.975Z,0.80
2019-01-04T09:17:05.160Z,0.80
2019-01-04T09:18:07.879Z,0.90
2019-01-04T09:19:05.238Z,0.90
2019-01-04T09:20:05.701Z,0.80
2019-01-04T09:21:04.981Z,0.90
2019-01-04T09:22:05.461Z,0.90
2019-01-04T09:23:04.819Z,0.90
2019-01-04T09:24:05.040Z,0.90
2019-01-04T09:25:05.200Z,0.90
2019-01-04T09:26:05.413Z,0.90
2019-01-04T09:27:08.078Z,0.90
2019-01-04T09:28:05.043Z,0.90
2019-01-04T09:29:05.416Z,0.90
2019-01-04T09:30:04.877Z,0.90
2019-01-04T09:31:07.623Z,1.00
2019-01-04T09:32:04.746Z,0.90
2019-01-04T09:33:07.457Z,1.00
2019-01-04T09:34:08.164Z,1.00
2019-01-04T09:35:05.432Z,1.00
2019-01-04T09:36:08.146Z,1.00
2019-01-04T09:37:05.135Z,1.00
2019-01-04T09:38:05.437Z,1.00
2019-01-04T09:39:08.122Z,1.00
2019-01-04T09:40:05.367Z,1.00
2019-01-04T09:41:05.615Z,1.00
2019-01-04T09:42:04.904Z,1.10
2019-01-04T09:43:05.247Z,1.10
2019-01-04T09:44:05.659Z,1.10
2019-01-04T09:45:07.569Z,1.20
2019-01-04T09:46:04.896Z,1.10
2019-01-04T09:47:07.763Z,1.10
2019-01-04T09:48:04.862Z,1.10
2019-01-04T09:49:10.146Z,1.10
2019-01-04T09:50:05.249Z,1.10
2019-01-04T09:51:05.391Z,1.10
2019-01-04T09:52:05.655Z,1.10
2019-01-04T09:53:04.882Z,1.10
2019-01-04T09:54:10.120Z,1.10
2019-01-04T09:55:07.892Z,1.10
2019-01-04T09:56:05.071Z,1.10
2019-01-04T09:57:07.853Z,1.10
2019-01-04T09:58:04.956Z,1.10
2019-01-04T09:59:05.276Z,1.10
2019-01-04T10:00:08.285Z,1.10
2019-01-04T10:01:07.842Z,1.10
2019-01-04T10:02:04.813Z,1.10
2019-01-04T10:03:05.066Z,1.10
2019-01-04T10:04:05.276Z,1.10
2019-01-04T10:05:05.402Z,1.10
2019-01-04T10:06:10.691Z,1.10
2019-01-04T10:07:07.319Z,1.10
2019-01-04T10:08:07.868Z,1.10
2019-01-04T10:09:07.535Z,1.20
2019-01-04T10:10:05.587Z,1.20
2019-01-04T10:11:04.743Z,1.20
2019-01-04T10:12:04.878Z,1.20
2019-01-04T10:13:05.100Z,1.20
2019-01-04T10:14:07.919Z,1.20
2019-01-04T10:15:07.761Z,1.30
2019-01-04T10:16:07.526Z,1.30
2019-01-04T10:17:07.286Z,1.30
2019-01-04T10:18:05.373Z,1.30
2019-01-04T10:19:04.971Z,1.30
2019-01-04T10:20:05.271Z,1.40
2019-01-04T10:21:05.466Z,1.40
2019-01-04T10:22:08.106Z,1.40
2019-01-04T10:23:07.805Z,1.50
2019-01-04T10:24:04.867Z,1.40
2019-01-04T10:25:10.108Z,1.50
2019-01-04T10:26:05.207Z,1.40
2019-01-04T10:27:08.014Z,1.50
2019-01-04T10:28:05.049Z,1.50
2019-01-04T10:29:05.278Z,1.50
2019-01-04T10:30:04.838Z,1.60
2019-01-04T10:31:05.058Z,1.50
2019-01-04T10:32:07.847Z,1.60
2019-01-04T10:33:07.473Z,1.60
2019-01-04T10:34:05.566Z,1.60
2019-01-04T10:35:10.264Z,1.60
2019-01-04T10:36:04.716Z,1.60
2019-01-04T10:37:04.976Z,1.60
2019-01-04T10:38:05.079Z,1.60
2019-01-04T10:39:07.792Z,1.70
2019-01-04T10:40:10.845Z,1.60
2019-01-04T10:41:05.600Z,1.60
2019-01-04T10:42:04.868Z,1.70
2019-01-04T10:43:07.530Z,1.70
2019-01-04T10:44:08.227Z,1.70
2019-01-04T10:45:05.455Z,1.70
2019-01-04T10:46:05.673Z,1.70
2019-01-04T10:47:07.394Z,1.70
2019-01-04T10:48:05.455Z,1.70
2019-01-04T10:49:05.882Z,1.70
2019-01-04T10:50:05.219Z,1.70
2019-01-04T10:51:08.045Z,1.70
2019-01-04T10:52:05.014Z,1.70
2019-01-04T10:53:07.629Z,1.70
2019-01-04T10:54:13.321Z,1.70
2019-01-04T10:55:05.423Z,1.70
2019-01-04T10:56:05.652Z,1.70
2019-01-04T10:57:04.772Z,1.70
2019-01-04T10:58:06.002Z,1.70
2019-01-04T10:59:05.227Z,1.80
2019-01-04T11:00:05.391Z,1.70
2019-01-04T11:01:05.506Z,1.70
2019-01-04T11:02:08.088Z,1.70
2019-01-04T11:03:05.000Z,1.70
2019-01-04T11:04:05.385Z,1.70
2019-01-04T11:05:07.985Z,1.80
2019-01-04T11:06:07.574Z,1.70
2019-01-04T11:07:05.718Z,1.70
2019-01-04T11:08:05.221Z,1.70
2019-01-04T11:09:07.409Z,1.80
2019-01-04T11:10:05.475Z,1.70
2019-01-04T11:11:04.694Z,1.70
2019-01-04T11:12:04.773Z,1.70
2019-01-04T11:13:04.874Z,1.70
2019-01-04T11:14:05.006Z,1.70
2019-01-04T11:15:05.245Z,1.70
2019-01-04T11:16:05.322Z,1.70
2019-01-04T11:17:07.916Z,1.80
2019-01-04T11:18:09.854Z,1.70
2019-01-04T11:19:07.571Z,1.80
2019-01-04T11:20:05.634Z,1.70
2019-01-04T11:21:04.703Z,1.70
2019-01-04T11:22:04.953Z,1.70
2019-01-04T11:23:05.097Z,1.70
2019-01-04T11:24:05.194Z,1.70
2019-01-04T11:25:05.313Z,1.70
2019-01-04T11:26:05.581Z,1.80
2019-01-04T11:27:04.812Z,1.80
2019-01-04T11:28:04.946Z,1.70
2019-01-04T11:29:05.081Z,1.80
2019-01-04T11:30:04.740Z,1.80
2019-01-04T11:31:04.824Z,1.80
2019-01-04T11:32:04.923Z,1.80
2019-01-04T11:33:04.967Z,1.80
2019-01-04T11:34:07.728Z,1.80
2019-01-04T11:35:04.675Z,1.80
2019-01-04T11:36:07.296Z,1.80
2019-01-04T11:37:07.721Z,1.80
2019-01-04T11:38:08.345Z,1.80
2019-01-04T11:39:05.318Z,1.90
2019-01-04T11:40:05.382Z,1.90
2019-01-04T11:41:05.485Z,1.90
2019-01-04T11:42:10.578Z,1.90
2019-01-04T11:43:05.566Z,1.90
2019-01-04T11:44:04.860Z,1.90
2019-01-04T11:45:05.113Z,1.90
2019-01-04T11:46:07.737Z,2.00
2019-01-04T11:47:04.668Z,2.00
2019-01-04T11:48:04.772Z,1.90
2019-01-04T11:49:05.330Z,1.90
2019-01-04T11:50:07.493Z,2.00
2019-01-04T11:51:05.475Z,2.00
2019-01-04T11:52:05.785Z,2.00
2019-01-04T11:53:05.011Z,2.00
2019-01-04T11:54:05.089Z,2.00
2019-01-04T11:55:05.201Z,2.00
2019-01-04T11:56:07.947Z,2.00
2019-01-04T11:57:07.522Z,2.10
2019-01-04T11:58:15.909Z,2.00
2019-01-04T11:59:04.905Z,2.00
2019-01-04T12:00:04.939Z,2.00
2019-01-04T12:01:04.943Z,2.10
2019-01-04T12:02:05.072Z,2.00
2019-01-04T12:03:07.662Z,2.10
2019-01-04T12:04:05.682Z,2.00
2019-01-04T12:05:04.845Z,2.00
2019-01-04T12:06:05.112Z,2.00
2019-01-04T12:07:07.827Z,2.10
2019-01-04T12:08:07.453Z,2.00
2019-01-04T12:09:05.531Z,2.00
2019-01-04T12:10:05.637Z,2.10
2019-01-04T12:11:07.273Z,2.10
2019-01-04T12:12:07.782Z,2.00
2019-01-04T12:13:07.419Z,2.10
2019-01-04T12:14:05.492Z,2.10
2019-01-04T12:15:08.203Z,2.10
2019-01-04T12:16:05.216Z,2.00
2019-01-04T12:17:05.519Z,2.10
2019-01-04T12:18:05.654Z,2.10
2019-01-04T12:19:04.744Z,2.10
2019-01-04T12:20:04.843Z,2.00
2019-01-04T12:21:04.940Z,2.00
2019-01-04T12:22:05.072Z,2.10
2019-01-04T12:23:11.105Z,2.00
2019-01-04T12:24:05.231Z,2.10
2019-01-04T12:25:07.750Z,2.10
2019-01-04T12:26:10.657Z,2.00
2019-01-04T12:27:05.754Z,2.10
2019-01-04T12:28:04.885Z,2.00
2019-01-04T12:29:06.348Z,2.00
2019-01-04T12:30:07.907Z,2.00
2019-01-04T12:31:04.987Z,2.00
2019-01-04T12:32:05.127Z,2.00
2019-01-04T12:33:05.144Z,2.00
2019-01-04T12:34:05.196Z,2.00
2019-01-04T12:35:05.242Z,2.10
2019-01-04T12:36:05.441Z,2.10
2019-01-04T12:37:05.685Z,2.00
2019-01-04T12:38:04.828Z,2.00
2019-01-04T12:39:04.960Z,2.10
2019-01-04T12:40:07.517Z,2.10
2019-01-04T12:41:05.439Z,2.00
2019-01-04T12:42:05.516Z,2.00
2019-01-04T12:43:05.657Z,2.00
2019-01-04T12:44:07.446Z,2.00
2019-01-04T12:45:10.501Z,2.00
2019-01-04T12:46:05.537Z,2.00
2019-01-04T12:47:08.314Z,2.00
2019-01-04T12:48:05.302Z,2.00
2019-01-04T12:49:07.901Z,2.10
2019-01-04T12:50:07.297Z,2.10
2019-01-04T12:51:05.422Z,2.00
2019-01-04T12:52:08.085Z,2.00
2019-01-04T12:53:04.998Z,2.00
2019-01-04T12:54:07.555Z,2.00
2019-01-04T12:55:05.381Z,2.00
2019-01-04T12:56:05.455Z,2.10
2019-01-04T12:57:08.088Z,2.10
2019-01-04T12:58:07.523Z,2.00
2019-01-04T12:59:08.022Z,2.00
2019-01-04T13:00:05.082Z,2.00
2019-01-04T13:01:05.190Z,2.00
2019-01-04T13:02:05.333Z,2.00
2019-01-04T13:03:08.082Z,2.00
2019-01-04T13:04:04.981Z,2.00
2019-01-04T13:05:05.054Z,2.00
2019-01-04T13:06:05.122Z,2.00
2019-01-04T13:07:05.162Z,2.00
2019-01-04T13:08:04.677Z,2.00
2019-01-04T13:09:07.218Z,2.00
2019-01-04T13:10:05.166Z,2.00
2019-01-04T13:11:07.804Z,2.00
2019-01-04T13:12:04.829Z,2.00
2019-01-04T13:13:04.999Z,2.00
2019-01-04T13:14:05.109Z,2.00
2019-01-04T13:15:07.719Z,2.00
2019-01-04T13:16:05.650Z,2.00
2019-01-04T13:17:04.820Z,2.00
2019-01-04T13:18:04.954Z,2.00